sensor_id;sensor_type;location;lat;lon;timestamp;P1;durP1;ratioP1;P2;durP2;ratioP2
45392;SDS011;31129;44.810;10.334;2022-11-20T00:01:18;74.10;;;36.85;;
45392;SDS011;31129;44.810;10.334;2022-11-20T00:03:45;77.43;;;37.13;;
45392;SDS011;31129;44.810;10.334;2022-11-20T00:06:12;78.63;;;39.50;;
45392;SDS011;31129;44.810;10.334;2022-11-20T00:08:42;78.38;;;37.17;;
45392;SDS011;31129;44.810;10.334;2022-11-20T00:11:09;82.32;;;38.67;;
45392;SDS011;31129;44.810;10.334;2022-11-20T00:13:36;85.38;;;41.10;;
45392;SDS011;31129;44.810;10.334;2022-11-20T00:16:04;85.05;;;38.85;;
45392;SDS011;31129;44.810;10.334;2022-11-20T00:18:32;77.38;;;36.85;;
45392;SDS011;31129;44.810;10.334;2022-11-20T00:21:02;81.63;;;38.22;;
45392;SDS011;31129;44.810;10.334;2022-11-20T00:23:31;81.03;;;38.00;;
45392;SDS011;31129;44.810;10.334;2022-11-20T00:26:00;77.07;;;37.33;;
45392;SDS011;31129;44.810;10.334;2022-11-20T00:28:34;69.57;;;35.70;;
45392;SDS011;31129;44.810;10.334;2022-11-20T00:31:03;77.50;;;37.10;;
45392;SDS011;31129;44.810;10.334;2022-11-20T00:33:30;75.47;;;34.22;;
45392;SDS011;31129;44.810;10.334;2022-11-20T00:36:03;69.20;;;32.85;;
45392;SDS011;31129;44.810;10.334;2022-11-20T00:38:31;75.15;;;34.63;;
45392;SDS011;31129;44.810;10.334;2022-11-20T00:41:00;64.53;;;32.28;;
45392;SDS011;31129;44.810;10.334;2022-11-20T00:43:27;75.82;;;33.90;;
45392;SDS011;31129;44.810;10.334;2022-11-20T00:45:59;67.80;;;32.92;;
45392;SDS011;31129;44.810;10.334;2022-11-20T00:48:26;68.85;;;33.63;;
45392;SDS011;31129;44.810;10.334;2022-11-20T00:50:52;66.10;;;32.08;;
45392;SDS011;31129;44.810;10.334;2022-11-20T00:53:19;56.13;;;30.20;;
45392;SDS011;31129;44.810;10.334;2022-11-20T00:55:54;63.78;;;29.98;;
45392;SDS011;31129;44.810;10.334;2022-11-20T00:58:21;55.28;;;29.30;;
45392;SDS011;31129;44.810;10.334;2022-11-20T01:00:48;60.45;;;30.00;;
45392;SDS011;31129;44.810;10.334;2022-11-20T01:03:14;59.30;;;29.85;;
45392;SDS011;31129;44.810;10.334;2022-11-20T01:05:41;62.20;;;29.92;;
45392;SDS011;31129;44.810;10.334;2022-11-20T01:08:07;56.45;;;29.42;;
45392;SDS011;31129;44.810;10.334;2022-11-20T01:10:33;58.65;;;29.02;;
45392;SDS011;31129;44.810;10.334;2022-11-20T01:12:58;59.70;;;29.75;;
45392;SDS011;31129;44.810;10.334;2022-11-20T01:15:42;57.05;;;28.00;;
45392;SDS011;31129;44.810;10.334;2022-11-20T01:18:08;60.97;;;30.20;;
45392;SDS011;31129;44.810;10.334;2022-11-20T01:20:34;61.33;;;30.25;;
45392;SDS011;31129;44.810;10.334;2022-11-20T01:23:01;61.92;;;30.98;;
45392;SDS011;31129;44.810;10.334;2022-11-20T01:25:27;62.28;;;30.92;;
45392;SDS011;31129;44.810;10.334;2022-11-20T01:27:53;61.97;;;31.08;;
45392;SDS011;31129;44.810;10.334;2022-11-20T01:30:18;58.42;;;30.05;;
45392;SDS011;31129;44.810;10.334;2022-11-20T01:32:44;63.25;;;29.88;;
45392;SDS011;31129;44.810;10.334;2022-11-20T01:35:09;61.20;;;30.30;;
45392;SDS011;31129;44.810;10.334;2022-11-20T01:37:35;62.25;;;30.27;;
45392;SDS011;31129;44.810;10.334;2022-11-20T01:40:01;63.35;;;31.15;;
45392;SDS011;31129;44.810;10.334;2022-11-20T01:42:26;58.80;;;30.60;;
45392;SDS011;31129;44.810;10.334;2022-11-20T01:48:15;55.42;;;28.85;;
45392;SDS011;31129;44.810;10.334;2022-11-20T01:50:41;54.90;;;28.42;;
45392;SDS011;31129;44.810;10.334;2022-11-20T01:53:08;57.60;;;30.02;;
45392;SDS011;31129;44.810;10.334;2022-11-20T01:55:39;62.92;;;29.30;;
45392;SDS011;31129;44.810;10.334;2022-11-20T01:58:10;60.55;;;29.25;;
45392;SDS011;31129;44.810;10.334;2022-11-20T02:00:36;51.55;;;27.50;;
45392;SDS011;31129;44.810;10.334;2022-11-20T02:03:12;53.90;;;28.25;;
45392;SDS011;31129;44.810;10.334;2022-11-20T02:08:31;46.95;;;25.70;;
45392;SDS011;31129;44.810;10.334;2022-11-20T02:10:57;51.63;;;26.85;;
45392;SDS011;31129;44.810;10.334;2022-11-20T02:13:23;51.50;;;26.27;;
45392;SDS011;31129;44.810;10.334;2022-11-20T02:18:40;52.40;;;26.40;;
45392;SDS011;31129;44.810;10.334;2022-11-20T02:21:21;49.75;;;26.20;;
45392;SDS011;31129;44.810;10.334;2022-11-20T02:23:59;46.60;;;25.25;;
45392;SDS011;31129;44.810;10.334;2022-11-20T02:26:27;47.63;;;25.27;;
45392;SDS011;31129;44.810;10.334;2022-11-20T02:28:54;46.60;;;24.88;;
45392;SDS011;31129;44.810;10.334;2022-11-20T02:31:20;45.03;;;25.42;;
45392;SDS011;31129;44.810;10.334;2022-11-20T02:33:45;48.42;;;24.88;;
45392;SDS011;31129;44.810;10.334;2022-11-20T02:36:11;49.60;;;24.75;;
45392;SDS011;31129;44.810;10.334;2022-11-20T02:38:40;47.10;;;24.35;;
45392;SDS011;31129;44.810;10.334;2022-11-20T02:41:06;43.33;;;23.23;;
45392;SDS011;31129;44.810;10.334;2022-11-20T02:43:32;41.50;;;22.92;;
45392;SDS011;31129;44.810;10.334;2022-11-20T02:45:58;48.78;;;23.55;;
45392;SDS011;31129;44.810;10.334;2022-11-20T02:48:23;44.50;;;22.80;;
45392;SDS011;31129;44.810;10.334;2022-11-20T02:50:49;43.47;;;23.10;;
45392;SDS011;31129;44.810;10.334;2022-11-20T02:53:15;43.45;;;23.33;;
45392;SDS011;31129;44.810;10.334;2022-11-20T02:55:41;46.30;;;23.00;;
45392;SDS011;31129;44.810;10.334;2022-11-20T02:58:06;43.53;;;22.25;;
45392;SDS011;31129;44.810;10.334;2022-11-20T03:00:32;49.42;;;24.40;;
45392;SDS011;31129;44.810;10.334;2022-11-20T03:02:57;42.17;;;22.95;;
45392;SDS011;31129;44.810;10.334;2022-11-20T03:05:23;41.28;;;23.35;;
45392;SDS011;31129;44.810;10.334;2022-11-20T03:07:48;42.13;;;23.13;;
45392;SDS011;31129;44.810;10.334;2022-11-20T03:10:14;44.65;;;23.30;;
45392;SDS011;31129;44.810;10.334;2022-11-20T03:12:39;41.92;;;22.80;;
45392;SDS011;31129;44.810;10.334;2022-11-20T03:15:05;46.15;;;23.27;;
45392;SDS011;31129;44.810;10.334;2022-11-20T03:17:30;44.65;;;23.88;;
45392;SDS011;31129;44.810;10.334;2022-11-20T03:19:56;48.80;;;25.13;;
45392;SDS011;31129;44.810;10.334;2022-11-20T03:22:21;47.60;;;24.17;;
45392;SDS011;31129;44.810;10.334;2022-11-20T03:24:48;43.90;;;23.58;;
45392;SDS011;31129;44.810;10.334;2022-11-20T03:27:14;44.13;;;23.48;;
45392;SDS011;31129;44.810;10.334;2022-11-20T03:29:39;45.78;;;24.25;;
45392;SDS011;31129;44.810;10.334;2022-11-20T03:32:05;44.65;;;23.95;;
45392;SDS011;31129;44.810;10.334;2022-11-20T03:34:30;44.33;;;23.45;;
45392;SDS011;31129;44.810;10.334;2022-11-20T03:36:56;42.75;;;24.15;;
45392;SDS011;31129;44.810;10.334;2022-11-20T03:39:21;43.10;;;22.92;;
45392;SDS011;31129;44.810;10.334;2022-11-20T03:41:47;41.97;;;22.05;;
45392;SDS011;31129;44.810;10.334;2022-11-20T03:44:12;47.55;;;24.40;;
45392;SDS011;31129;44.810;10.334;2022-11-20T03:46:38;47.88;;;24.60;;
45392;SDS011;31129;44.810;10.334;2022-11-20T03:49:04;42.75;;;23.10;;
45392;SDS011;31129;44.810;10.334;2022-11-20T03:51:34;43.92;;;23.30;;
45392;SDS011;31129;44.810;10.334;2022-11-20T03:54:02;44.78;;;24.27;;
45392;SDS011;31129;44.810;10.334;2022-11-20T03:56:30;48.15;;;24.05;;
45392;SDS011;31129;44.810;10.334;2022-11-20T03:58:58;46.80;;;24.08;;
45392;SDS011;31129;44.810;10.334;2022-11-20T04:01:25;42.88;;;22.75;;
45392;SDS011;31129;44.810;10.334;2022-11-20T04:03:52;41.28;;;23.33;;
45392;SDS011;31129;44.810;10.334;2022-11-20T04:06:20;44.03;;;23.70;;
45392;SDS011;31129;44.810;10.334;2022-11-20T04:08:50;46.45;;;23.63;;
45392;SDS011;31129;44.810;10.334;2022-11-20T04:13:46;41.47;;;23.23;;
45392;SDS011;31129;44.810;10.334;2022-11-20T04:16:13;43.22;;;22.55;;
45392;SDS011;31129;44.810;10.334;2022-11-20T04:18:39;43.03;;;24.35;;
45392;SDS011;31129;44.810;10.334;2022-11-20T04:21:04;43.60;;;24.08;;
45392;SDS011;31129;44.810;10.334;2022-11-20T04:23:33;45.00;;;24.75;;
45392;SDS011;31129;44.810;10.334;2022-11-20T04:26:06;45.80;;;23.50;;
45392;SDS011;31129;44.810;10.334;2022-11-20T04:28:36;45.38;;;24.52;;
45392;SDS011;31129;44.810;10.334;2022-11-20T04:31:03;49.47;;;24.77;;
45392;SDS011;31129;44.810;10.334;2022-11-20T04:33:32;52.50;;;25.13;;
45392;SDS011;31129;44.810;10.334;2022-11-20T04:38:31;42.55;;;23.17;;
45392;SDS011;31129;44.810;10.334;2022-11-20T04:40:58;41.25;;;24.95;;
45392;SDS011;31129;44.810;10.334;2022-11-20T04:43:24;49.95;;;25.42;;
45392;SDS011;31129;44.810;10.334;2022-11-20T04:45:53;52.92;;;26.15;;
45392;SDS011;31129;44.810;10.334;2022-11-20T04:48:20;45.05;;;24.52;;
45392;SDS011;31129;44.810;10.334;2022-11-20T04:50:45;48.53;;;25.95;;
45392;SDS011;31129;44.810;10.334;2022-11-20T04:53:11;47.88;;;24.45;;
45392;SDS011;31129;44.810;10.334;2022-11-20T04:55:36;53.88;;;25.98;;
45392;SDS011;31129;44.810;10.334;2022-11-20T04:58:02;49.05;;;26.95;;
45392;SDS011;31129;44.810;10.334;2022-11-20T05:00:27;48.65;;;25.95;;
45392;SDS011;31129;44.810;10.334;2022-11-20T05:02:53;53.22;;;25.85;;
45392;SDS011;31129;44.810;10.334;2022-11-20T05:05:18;49.22;;;25.17;;
45392;SDS011;31129;44.810;10.334;2022-11-20T05:07:44;50.63;;;24.40;;
45392;SDS011;31129;44.810;10.334;2022-11-20T05:10:09;46.92;;;25.27;;
45392;SDS011;31129;44.810;10.334;2022-11-20T05:12:34;44.72;;;24.33;;
45392;SDS011;31129;44.810;10.334;2022-11-20T05:15:00;47.88;;;25.60;;
45392;SDS011;31129;44.810;10.334;2022-11-20T05:17:25;49.58;;;25.65;;
45392;SDS011;31129;44.810;10.334;2022-11-20T05:19:51;47.38;;;25.20;;
45392;SDS011;31129;44.810;10.334;2022-11-20T05:22:16;48.85;;;26.52;;
45392;SDS011;31129;44.810;10.334;2022-11-20T05:24:42;46.20;;;25.55;;
45392;SDS011;31129;44.810;10.334;2022-11-20T05:27:07;46.58;;;26.75;;
45392;SDS011;31129;44.810;10.334;2022-11-20T05:29:32;48.10;;;21.98;;
45392;SDS011;31129;44.810;10.334;2022-11-20T05:31:58;45.67;;;24.80;;
45392;SDS011;31129;44.810;10.334;2022-11-20T05:34:23;44.28;;;24.55;;
45392;SDS011;31129;44.810;10.334;2022-11-20T05:36:49;46.95;;;24.83;;
45392;SDS011;31129;44.810;10.334;2022-11-20T05:39:14;41.40;;;23.40;;
45392;SDS011;31129;44.810;10.334;2022-11-20T05:41:40;49.80;;;25.17;;
45392;SDS011;31129;44.810;10.334;2022-11-20T05:44:05;49.80;;;25.52;;
45392;SDS011;31129;44.810;10.334;2022-11-20T05:46:31;47.30;;;24.88;;
45392;SDS011;31129;44.810;10.334;2022-11-20T05:48:57;46.97;;;23.70;;
45392;SDS011;31129;44.810;10.334;2022-11-20T05:51:23;45.17;;;23.45;;
45392;SDS011;31129;44.810;10.334;2022-11-20T05:53:49;43.67;;;24.30;;
45392;SDS011;31129;44.810;10.334;2022-11-20T05:56:19;44.38;;;23.08;;
45392;SDS011;31129;44.810;10.334;2022-11-20T05:58:45;42.28;;;22.58;;
45392;SDS011;31129;44.810;10.334;2022-11-20T06:01:13;45.38;;;22.85;;
45392;SDS011;31129;44.810;10.334;2022-11-20T06:03:43;38.00;;;22.15;;
45392;SDS011;31129;44.810;10.334;2022-11-20T06:06:11;47.45;;;23.13;;
45392;SDS011;31129;44.810;10.334;2022-11-20T06:08:37;44.50;;;24.08;;
45392;SDS011;31129;44.810;10.334;2022-11-20T06:11:04;42.58;;;22.98;;
45392;SDS011;31129;44.810;10.334;2022-11-20T06:13:34;47.42;;;24.38;;
45392;SDS011;31129;44.810;10.334;2022-11-20T06:15:59;46.25;;;23.13;;
45392;SDS011;31129;44.810;10.334;2022-11-20T06:18:26;44.10;;;21.50;;
45392;SDS011;31129;44.810;10.334;2022-11-20T06:21:05;45.05;;;23.77;;
45392;SDS011;31129;44.810;10.334;2022-11-20T06:23:33;44.70;;;22.30;;
45392;SDS011;31129;44.810;10.334;2022-11-20T06:26:07;45.10;;;21.73;;
45392;SDS011;31129;44.810;10.334;2022-11-20T06:28:33;43.97;;;21.50;;
45392;SDS011;31129;44.810;10.334;2022-11-20T06:30:59;46.67;;;23.33;;
45392;SDS011;31129;44.810;10.334;2022-11-20T06:33:25;47.83;;;24.45;;
45392;SDS011;31129;44.810;10.334;2022-11-20T06:35:51;47.38;;;23.52;;
45392;SDS011;31129;44.810;10.334;2022-11-20T06:38:16;47.95;;;25.15;;
45392;SDS011;31129;44.810;10.334;2022-11-20T06:40:42;47.67;;;24.50;;
45392;SDS011;31129;44.810;10.334;2022-11-20T06:43:09;43.65;;;23.08;;
45392;SDS011;31129;44.810;10.334;2022-11-20T06:45:35;45.13;;;22.38;;
45392;SDS011;31129;44.810;10.334;2022-11-20T06:48:01;48.42;;;22.48;;
45392;SDS011;31129;44.810;10.334;2022-11-20T06:50:26;41.17;;;22.67;;
45392;SDS011;31129;44.810;10.334;2022-11-20T06:52:52;44.03;;;23.38;;
45392;SDS011;31129;44.810;10.334;2022-11-20T06:55:17;43.92;;;22.73;;
45392;SDS011;31129;44.810;10.334;2022-11-20T06:57:42;40.47;;;21.85;;
45392;SDS011;31129;44.810;10.334;2022-11-20T07:00:08;41.17;;;22.98;;
45392;SDS011;31129;44.810;10.334;2022-11-20T07:02:34;43.63;;;22.80;;
45392;SDS011;31129;44.810;10.334;2022-11-20T07:04:59;40.42;;;22.08;;
45392;SDS011;31129;44.810;10.334;2022-11-20T07:07:25;41.75;;;22.20;;
45392;SDS011;31129;44.810;10.334;2022-11-20T07:09:50;44.85;;;22.63;;
45392;SDS011;31129;44.810;10.334;2022-11-20T07:12:16;42.30;;;22.05;;
45392;SDS011;31129;44.810;10.334;2022-11-20T07:14:41;48.30;;;23.80;;
45392;SDS011;31129;44.810;10.334;2022-11-20T07:17:09;45.65;;;23.67;;
45392;SDS011;31129;44.810;10.334;2022-11-20T07:19:35;47.08;;;23.35;;
45392;SDS011;31129;44.810;10.334;2022-11-20T07:22:00;48.72;;;22.30;;
45392;SDS011;31129;44.810;10.334;2022-11-20T07:24:26;43.72;;;22.48;;
45392;SDS011;31129;44.810;10.334;2022-11-20T07:26:51;43.55;;;22.85;;
45392;SDS011;31129;44.810;10.334;2022-11-20T07:29:16;49.00;;;24.23;;
45392;SDS011;31129;44.810;10.334;2022-11-20T07:31:42;56.35;;;24.88;;
45392;SDS011;31129;44.810;10.334;2022-11-20T07:34:08;55.58;;;25.60;;
45392;SDS011;31129;44.810;10.334;2022-11-20T07:39:02;61.08;;;25.67;;
45392;SDS011;31129;44.810;10.334;2022-11-20T07:41:27;49.80;;;24.02;;
45392;SDS011;31129;44.810;10.334;2022-11-20T07:43:54;58.88;;;26.67;;
45392;SDS011;31129;44.810;10.334;2022-11-20T07:46:19;69.22;;;29.92;;
45392;SDS011;31129;44.810;10.334;2022-11-20T07:48:44;75.80;;;32.45;;
45392;SDS011;31129;44.810;10.334;2022-11-20T07:51:10;68.10;;;29.40;;
45392;SDS011;31129;44.810;10.334;2022-11-20T07:53:35;91.82;;;32.08;;
45392;SDS011;31129;44.810;10.334;2022-11-20T07:56:01;113.20;;;35.40;;
45392;SDS011;31129;44.810;10.334;2022-11-20T07:58:30;120.10;;;35.97;;
45392;SDS011;31129;44.810;10.334;2022-11-20T08:01:03;143.35;;;34.90;;
45392;SDS011;31129;44.810;10.334;2022-11-20T08:03:30;103.55;;;37.97;;
45392;SDS011;31129;44.810;10.334;2022-11-20T08:05:58;131.40;;;37.67;;
45392;SDS011;31129;44.810;10.334;2022-11-20T08:08:24;118.90;;;38.35;;
45392;SDS011;31129;44.810;10.334;2022-11-20T08:10:49;115.50;;;40.05;;
45392;SDS011;31129;44.810;10.334;2022-11-20T08:13:15;117.35;;;40.55;;
45392;SDS011;31129;44.810;10.334;2022-11-20T08:15:59;118.43;;;39.40;;
45392;SDS011;31129;44.810;10.334;2022-11-20T08:18:24;108.03;;;42.00;;
45392;SDS011;31129;44.810;10.334;2022-11-20T08:20:50;103.18;;;40.65;;
45392;SDS011;31129;44.810;10.334;2022-11-20T08:23:16;110.63;;;40.40;;
45392;SDS011;31129;44.810;10.334;2022-11-20T08:25:48;120.88;;;44.03;;
45392;SDS011;31129;44.810;10.334;2022-11-20T08:28:14;140.77;;;43.72;;
45392;SDS011;31129;44.810;10.334;2022-11-20T08:30:39;147.00;;;43.85;;
45392;SDS011;31129;44.810;10.334;2022-11-20T08:33:06;145.45;;;44.95;;
45392;SDS011;31129;44.810;10.334;2022-11-20T08:35:36;144.50;;;44.40;;
45392;SDS011;31129;44.810;10.334;2022-11-20T08:38:03;195.80;;;48.97;;
45392;SDS011;31129;44.810;10.334;2022-11-20T08:40:29;141.20;;;48.20;;
45392;SDS011;31129;44.810;10.334;2022-11-20T08:42:55;149.43;;;47.08;;
45392;SDS011;31129;44.810;10.334;2022-11-20T08:45:23;139.65;;;50.33;;
45392;SDS011;31129;44.810;10.334;2022-11-20T08:47:49;158.00;;;49.33;;
45392;SDS011;31129;44.810;10.334;2022-11-20T08:50:15;154.77;;;46.85;;
45392;SDS011;31129;44.810;10.334;2022-11-20T08:52:41;137.45;;;48.88;;
45392;SDS011;31129;44.810;10.334;2022-11-20T08:55:07;143.02;;;48.75;;
45392;SDS011;31129;44.810;10.334;2022-11-20T08:57:34;157.65;;;46.95;;
45392;SDS011;31129;44.810;10.334;2022-11-20T09:00:00;130.05;;;46.15;;
45392;SDS011;31129;44.810;10.334;2022-11-20T09:02:26;161.18;;;48.38;;
45392;SDS011;31129;44.810;10.334;2022-11-20T09:04:51;134.75;;;49.25;;
45392;SDS011;31129;44.810;10.334;2022-11-20T09:07:18;144.63;;;48.00;;
45392;SDS011;31129;44.810;10.334;2022-11-20T09:09:44;122.35;;;46.25;;
45392;SDS011;31129;44.810;10.334;2022-11-20T09:12:09;121.15;;;49.05;;
45392;SDS011;31129;44.810;10.334;2022-11-20T09:14:35;108.40;;;47.30;;
45392;SDS011;31129;44.810;10.334;2022-11-20T09:17:00;100.47;;;44.72;;
45392;SDS011;31129;44.810;10.334;2022-11-20T09:19:26;111.97;;;44.33;;
45392;SDS011;31129;44.810;10.334;2022-11-20T09:21:51;136.02;;;44.08;;
45392;SDS011;31129;44.810;10.334;2022-11-20T09:24:17;132.68;;;43.00;;
45392;SDS011;31129;44.810;10.334;2022-11-20T09:26:44;104.00;;;45.33;;
45392;SDS011;31129;44.810;10.334;2022-11-20T09:29:09;121.18;;;41.63;;
45392;SDS011;31129;44.810;10.334;2022-11-20T09:31:35;94.88;;;40.90;;
45392;SDS011;31129;44.810;10.334;2022-11-20T09:34:00;110.15;;;42.10;;
45392;SDS011;31129;44.810;10.334;2022-11-20T09:36:26;107.50;;;44.63;;
45392;SDS011;31129;44.810;10.334;2022-11-20T09:38:51;103.32;;;44.80;;
45392;SDS011;31129;44.810;10.334;2022-11-20T09:44:18;93.32;;;42.63;;
45392;SDS011;31129;44.810;10.334;2022-11-20T09:46:53;93.43;;;42.25;;
45392;SDS011;31129;44.810;10.334;2022-11-20T09:49:28;105.33;;;45.37;;
45392;SDS011;31129;44.810;10.334;2022-11-20T09:55:02;106.63;;;46.80;;
45392;SDS011;31129;44.810;10.334;2022-11-20T09:57:35;101.13;;;44.80;;
45392;SDS011;31129;44.810;10.334;2022-11-20T10:00:03;112.30;;;46.60;;
45392;SDS011;31129;44.810;10.334;2022-11-20T10:05:35;113.32;;;45.67;;
45392;SDS011;31129;44.810;10.334;2022-11-20T10:10:56;127.10;;;43.85;;
45392;SDS011;31129;44.810;10.334;2022-11-20T10:18:56;106.03;;;48.60;;
45392;SDS011;31129;44.810;10.334;2022-11-20T10:30:03;101.05;;;47.25;;
45392;SDS011;31129;44.810;10.334;2022-11-20T10:32:40;110.63;;;50.38;;
45392;SDS011;31129;44.810;10.334;2022-11-20T10:35:28;110.22;;;50.90;;
45392;SDS011;31129;44.810;10.334;2022-11-20T10:38:00;99.32;;;48.90;;
45392;SDS011;31129;44.810;10.334;2022-11-20T10:40:40;105.15;;;48.08;;
45392;SDS011;31129;44.810;10.334;2022-11-20T10:43:10;107.47;;;49.92;;
45392;SDS011;31129;44.810;10.334;2022-11-20T10:45:43;102.47;;;47.05;;
45392;SDS011;31129;44.810;10.334;2022-11-20T10:48:21;109.07;;;50.83;;
45392;SDS011;31129;44.810;10.334;2022-11-20T10:54:04;104.32;;;49.58;;
45392;SDS011;31129;44.810;10.334;2022-11-20T10:56:58;91.90;;;46.25;;
45392;SDS011;31129;44.810;10.334;2022-11-20T11:02:20;98.30;;;48.55;;
45392;SDS011;31129;44.810;10.334;2022-11-20T11:04:51;94.47;;;46.05;;
45392;SDS011;31129;44.810;10.334;2022-11-20T11:10:05;91.20;;;46.83;;
45392;SDS011;31129;44.810;10.334;2022-11-20T11:12:42;96.47;;;47.70;;
45392;SDS011;31129;44.810;10.334;2022-11-20T11:15:11;99.43;;;48.70;;
45392;SDS011;31129;44.810;10.334;2022-11-20T11:17:54;92.95;;;47.95;;
45392;SDS011;31129;44.810;10.334;2022-11-20T11:20:20;92.78;;;46.42;;
45392;SDS011;31129;44.810;10.334;2022-11-20T11:22:52;85.47;;;44.50;;
45392;SDS011;31129;44.810;10.334;2022-11-20T11:25:30;84.38;;;45.90;;
45392;SDS011;31129;44.810;10.334;2022-11-20T11:28:19;92.25;;;45.50;;
45392;SDS011;31129;44.810;10.334;2022-11-20T11:30:51;89.57;;;46.35;;
45392;SDS011;31129;44.810;10.334;2022-11-20T11:33:24;98.57;;;47.25;;
45392;SDS011;31129;44.810;10.334;2022-11-20T11:35:52;91.57;;;47.65;;
45392;SDS011;31129;44.810;10.334;2022-11-20T11:38:29;96.45;;;48.67;;
45392;SDS011;31129;44.810;10.334;2022-11-20T11:40:59;86.07;;;45.17;;
45392;SDS011;31129;44.810;10.334;2022-11-20T11:43:26;91.95;;;45.40;;
45392;SDS011;31129;44.810;10.334;2022-11-20T11:48:54;94.40;;;48.22;;
45392;SDS011;31129;44.810;10.334;2022-11-20T11:54:28;92.40;;;47.55;;
45392;SDS011;31129;44.810;10.334;2022-11-20T11:56:55;86.90;;;45.58;;
45392;SDS011;31129;44.810;10.334;2022-11-20T11:59:27;89.88;;;45.00;;
45392;SDS011;31129;44.810;10.334;2022-11-20T12:04:44;76.15;;;44.70;;
45392;SDS011;31129;44.810;10.334;2022-11-20T12:07:19;76.40;;;42.30;;
45392;SDS011;31129;44.810;10.334;2022-11-20T12:10:00;84.57;;;44.63;;
45392;SDS011;31129;44.810;10.334;2022-11-20T12:12:27;74.25;;;42.10;;
45392;SDS011;31129;44.810;10.334;2022-11-20T12:15:00;79.95;;;42.15;;
45392;SDS011;31129;44.810;10.334;2022-11-20T12:17:26;78.28;;;42.22;;
45392;SDS011;31129;44.810;10.334;2022-11-20T12:19:51;76.70;;;41.20;;
45392;SDS011;31129;44.810;10.334;2022-11-20T12:30:22;79.57;;;42.75;;
45392;SDS011;31129;44.810;10.334;2022-11-20T12:33:13;76.68;;;41.22;;
45392;SDS011;31129;44.810;10.334;2022-11-20T12:36:19;68.93;;;39.60;;
45392;SDS011;31129;44.810;10.334;2022-11-20T12:44:42;70.43;;;39.35;;
45392;SDS011;31129;44.810;10.334;2022-11-20T12:53:04;72.20;;;40.88;;
45392;SDS011;31129;44.810;10.334;2022-11-20T13:01:00;76.03;;;39.78;;
45392;SDS011;31129;44.810;10.334;2022-11-20T13:04:06;73.63;;;41.17;;
45392;SDS011;31129;44.810;10.334;2022-11-20T13:06:42;68.22;;;39.83;;
45392;SDS011;31129;44.810;10.334;2022-11-20T13:09:10;70.80;;;39.97;;
45392;SDS011;31129;44.810;10.334;2022-11-20T13:16:55;66.65;;;39.33;;
45392;SDS011;31129;44.810;10.334;2022-11-20T13:19:34;66.43;;;38.53;;
45392;SDS011;31129;44.810;10.334;2022-11-20T13:22:00;69.35;;;38.63;;
45392;SDS011;31129;44.810;10.334;2022-11-20T13:24:29;70.68;;;38.90;;
45392;SDS011;31129;44.810;10.334;2022-11-20T13:29:34;65.30;;;37.83;;
45392;SDS011;31129;44.810;10.334;2022-11-20T13:32:02;70.30;;;39.03;;
45392;SDS011;31129;44.810;10.334;2022-11-20T13:34:28;65.57;;;37.00;;
45392;SDS011;31129;44.810;10.334;2022-11-20T13:36:56;68.28;;;38.45;;
45392;SDS011;31129;44.810;10.334;2022-11-20T13:39:35;66.22;;;36.03;;
45392;SDS011;31129;44.810;10.334;2022-11-20T13:42:25;70.15;;;38.33;;
45392;SDS011;31129;44.810;10.334;2022-11-20T13:45:00;68.60;;;37.30;;
45392;SDS011;31129;44.810;10.334;2022-11-20T13:47:27;67.65;;;36.75;;
45392;SDS011;31129;44.810;10.334;2022-11-20T13:49:54;66.38;;;38.25;;
45392;SDS011;31129;44.810;10.334;2022-11-20T14:01:22;63.92;;;36.95;;
45392;SDS011;31129;44.810;10.334;2022-11-20T14:03:49;65.00;;;38.75;;
45392;SDS011;31129;44.810;10.334;2022-11-20T14:07:02;70.60;;;38.20;;
45392;SDS011;31129;44.810;10.334;2022-11-20T14:09:10;70.28;;;39.70;;
45392;SDS011;31129;44.810;10.334;2022-11-20T14:11:57;70.72;;;39.90;;
45392;SDS011;31129;44.810;10.334;2022-11-20T14:14:23;72.47;;;40.35;;
45392;SDS011;31129;44.810;10.334;2022-11-20T14:16:50;75.85;;;41.70;;
45392;SDS011;31129;44.810;10.334;2022-11-20T14:21:42;74.00;;;41.47;;
45392;SDS011;31129;44.810;10.334;2022-11-20T14:24:10;72.60;;;41.22;;
45392;SDS011;31129;44.810;10.334;2022-11-20T14:26:43;75.53;;;40.72;;
45392;SDS011;31129;44.810;10.334;2022-11-20T14:29:13;74.13;;;41.05;;
45392;SDS011;31129;44.810;10.334;2022-11-20T14:31:40;72.82;;;41.45;;
45392;SDS011;31129;44.810;10.334;2022-11-20T14:34:24;68.30;;;39.58;;
45392;SDS011;31129;44.810;10.334;2022-11-20T14:36:52;75.00;;;39.13;;
45392;SDS011;31129;44.810;10.334;2022-11-20T14:39:22;113.63;;;63.90;;
45392;SDS011;31129;44.810;10.334;2022-11-20T14:41:53;88.55;;;51.20;;
45392;SDS011;31129;44.810;10.334;2022-11-20T14:44:26;83.43;;;47.85;;
45392;SDS011;31129;44.810;10.334;2022-11-20T14:46:55;87.80;;;50.80;;
45392;SDS011;31129;44.810;10.334;2022-11-20T14:49:22;95.88;;;52.22;;
45392;SDS011;31129;44.810;10.334;2022-11-20T14:51:57;98.47;;;55.67;;
45392;SDS011;31129;44.810;10.334;2022-11-20T14:54:47;78.22;;;43.90;;
45392;SDS011;31129;44.810;10.334;2022-11-20T14:57:25;77.07;;;44.00;;
45392;SDS011;31129;44.810;10.334;2022-11-20T15:00:02;79.35;;;44.53;;
45392;SDS011;31129;44.810;10.334;2022-11-20T15:02:41;79.82;;;44.53;;
45392;SDS011;31129;44.810;10.334;2022-11-20T15:05:07;79.93;;;44.83;;
45392;SDS011;31129;44.810;10.334;2022-11-20T15:07:34;87.72;;;48.28;;
45392;SDS011;31129;44.810;10.334;2022-11-20T15:10:02;77.90;;;45.53;;
45392;SDS011;31129;44.810;10.334;2022-11-20T15:12:31;90.38;;;49.53;;
45392;SDS011;31129;44.810;10.334;2022-11-20T15:17:25;83.63;;;45.10;;
45392;SDS011;31129;44.810;10.334;2022-11-20T15:19:51;74.15;;;43.63;;
45392;SDS011;31129;44.810;10.334;2022-11-20T15:22:20;79.32;;;45.60;;
45392;SDS011;31129;44.810;10.334;2022-11-20T15:24:45;78.50;;;43.15;;
45392;SDS011;31129;44.810;10.334;2022-11-20T15:27:11;81.30;;;44.10;;
45392;SDS011;31129;44.810;10.334;2022-11-20T15:29:37;75.82;;;43.88;;
45392;SDS011;31129;44.810;10.334;2022-11-20T15:32:02;77.38;;;42.78;;
45392;SDS011;31129;44.810;10.334;2022-11-20T15:34:28;77.90;;;43.10;;
45392;SDS011;31129;44.810;10.334;2022-11-20T15:36:54;74.78;;;42.00;;
45392;SDS011;31129;44.810;10.334;2022-11-20T15:39:19;76.35;;;42.95;;
45392;SDS011;31129;44.810;10.334;2022-11-20T15:41:45;78.47;;;42.17;;
45392;SDS011;31129;44.810;10.334;2022-11-20T15:44:11;79.07;;;44.05;;
45392;SDS011;31129;44.810;10.334;2022-11-20T15:46:37;80.00;;;43.25;;
45392;SDS011;31129;44.810;10.334;2022-11-20T15:49:10;82.13;;;43.58;;
45392;SDS011;31129;44.810;10.334;2022-11-20T15:51:39;82.90;;;42.85;;
45392;SDS011;31129;44.810;10.334;2022-11-20T15:54:11;81.68;;;43.58;;
45392;SDS011;31129;44.810;10.334;2022-11-20T15:56:42;84.53;;;43.22;;
45392;SDS011;31129;44.810;10.334;2022-11-20T15:59:08;89.47;;;46.97;;
45392;SDS011;31129;44.810;10.334;2022-11-20T16:01:33;86.38;;;45.08;;